Time;durP1;ratioP1;P1;durP2;ratioP2;P2;SDS_P1;SDS_P2;PMS_P1;PMS_P2;Temp;Humidity;BMP_temperature;BMP_pressure;BME280_temperature;BME280_humidity;BME280_pressure;Samples;Min_cycle;Max_cycle;Signal;HPM_P1;HPM_P2
2022/06/24 00:01:35;;;;;;;1999.90;999.90;;;19.80;99.90;;;;;;5094638;28;20054;-61
2022/06/24 00:04:01;;;;;;;1999.90;999.90;;;19.70;99.90;;;;;;5114281;28;20043;-61
2022/06/24 00:06:40;;;;;;;1999.90;999.90;;;19.70;99.90;;;;;;5117306;28;20097;-61
2022/06/24 00:09:05;;;;;;;1999.90;999.90;;;19.60;99.90;;;;;;5098158;28;20043;-61
2022/06/24 00:11:31;;;;;;;1999.90;999.90;;;19.60;99.90;;;;;;5097918;28;20081;-61
2022/06/24 00:14:08;;;;;;;1999.90;999.90;;;19.60;99.90;;;;;;5116851;28;20089;-61
2022/06/24 00:17:00;;;;;;;1999.90;999.90;;;19.50;99.90;;;;;;5115716;28;20043;-61
2022/06/24 00:19:28;;;;;;;1999.90;999.90;;;19.50;99.90;;;;;;5115522;28;20035;-61
2022/06/24 00:22:03;;;;;;;1999.90;999.90;;;19.50;99.90;;;;;;5113800;28;20039;-61
2022/06/24 00:24:30;;;;;;;1999.90;999.90;;;19.60;99.90;;;;;;5116177;28;20050;-61
2022/06/24 00:26:56;;;;;;;1999.90;999.90;;;19.60;99.90;;;;;;5116294;28;20460;-61
2022/06/24 00:29:25;;;;;;;1999.90;999.90;;;19.60;99.90;;;;;;5098026;28;20066;-61
2022/06/24 00:32:01;;;;;;;1999.90;999.90;;;19.60;99.90;;;;;;5116181;28;20047;-61
2022/06/24 00:34:27;;;;;;;1999.90;999.90;;;19.70;99.90;;;;;;5116582;28;20051;-61
2022/06/24 00:36:53;;;;;;;1999.90;999.90;;;19.70;99.90;;;;;;5116763;28;20100;-61
2022/06/24 00:39:19;;;;;;;1999.90;999.90;;;19.80;99.90;;;;;;5110620;28;20043;-61
2022/06/24 00:41:50;;;;;;;1999.90;999.90;;;19.80;99.90;;;;;;5116127;28;20095;-61
2022/06/24 00:44:19;;;;;;;1999.90;999.90;;;19.90;99.90;;;;;;5115785;28;20052;-61
2022/06/24 00:46:47;;;;;;;1999.90;999.90;;;19.90;99.90;;;;;;5116389;28;20040;-61
2022/06/24 00:49:16;;;;;;;1999.90;999.90;;;19.90;99.90;;;;;;5115506;28;20120;-61
2022/06/24 00:51:42;;;;;;;1999.90;999.90;;;19.90;99.90;;;;;;5115593;28;20546;-61
2022/06/24 00:54:12;;;;;;;1999.90;999.90;;;19.90;99.90;;;;;;5098178;28;20044;-61
2022/06/24 00:56:38;;;;;;;1999.90;999.90;;;19.80;99.90;;;;;;5115292;28;20039;-61
2022/06/24 00:59:07;;;;;;;1999.90;999.90;;;19.60;99.90;;;;;;5115580;28;20039;-61
2022/06/24 01:01:35;;;;;;;1999.90;999.90;;;19.40;99.90;;;;;;5115713;28;20048;-61
2022/06/24 01:04:02;;;;;;;1999.90;999.90;;;19.40;99.90;;;;;;5115881;28;20178;-61
2022/06/24 01:06:29;;;;;;;1999.90;999.90;;;19.40;99.90;;;;;;5114914;28;20489;-61
2022/06/24 01:08:56;;;;;;;1999.90;999.90;;;19.50;99.90;;;;;;5115980;28;20043;-61
2022/06/24 01:11:24;;;;;;;1999.90;999.90;;;19.50;99.90;;;;;;5115732;28;20050;-61
2022/06/24 01:13:51;;;;;;;1999.90;999.90;;;19.50;99.90;;;;;;5114092;28;20043;-61
2022/06/24 01:16:19;;;;;;;1999.90;999.90;;;19.50;99.90;;;;;;5097827;28;20151;-61
2022/06/24 01:18:44;;;;;;;1999.90;999.90;;;19.50;99.90;;;;;;5115387;28;20047;-61
2022/06/24 01:21:12;;;;;;;1999.90;999.90;;;19.50;99.90;;;;;;5115246;28;20048;-61
2022/06/24 01:23:38;;;;;;;1999.90;999.90;;;19.50;99.90;;;;;;5115425;28;20105;-61
2022/06/24 01:26:04;;;;;;;1999.90;999.90;;;19.40;99.90;;;;;;5115338;28;20040;-61
2022/06/24 01:28:30;;;;;;;1999.90;999.90;;;19.30;99.90;;;;;;5096617;28;20104;-61
2022/06/24 01:30:55;;;;;;;1999.90;999.90;;;19.30;99.90;;;;;;5115349;28;20054;-61
2022/06/24 01:33:21;;;;;;;1999.90;999.90;;;19.20;99.90;;;;;;5095807;28;20047;-61
2022/06/24 01:35:47;;;;;;;1999.90;999.90;;;19.20;99.90;;;;;;5115528;28;20043;-61
2022/06/24 01:38:12;;;;;;;1999.90;999.90;;;19.20;99.90;;;;;;5115502;28;20040;-61
2022/06/24 01:40:38;;;;;;;1999.90;999.90;;;19.20;99.90;;;;;;5113791;28;20039;-61
2022/06/24 01:43:04;;;;;;;1999.90;999.90;;;19.20;99.90;;;;;;5115191;28;20043;-61
2022/06/24 01:45:30;;;;;;;1999.90;999.90;;;19.20;99.90;;;;;;5115457;28;20044;-61
2022/06/24 01:47:56;;;;;;;1999.90;999.90;;;19.20;99.90;;;;;;5114201;28;20036;-61
2022/06/24 01:50:22;;;;;;;1999.90;999.90;;;19.10;99.90;;;;;;5096146;28;20196;-61
2022/06/24 01:52:47;;;;;;;1999.90;999.90;;;19.10;99.90;;;;;;5115249;28;20044;-61
2022/06/24 01:55:13;;;;;;;1999.90;999.90;;;19.10;99.90;;;;;;5113928;28;20085;-61
2022/06/24 01:57:39;;;;;;;1999.90;999.90;;;19.00;99.90;;;;;;5114910;28;20047;-61
2022/06/24 02:00:07;;;;;;;1999.90;999.90;;;18.90;99.90;;;;;;5115105;28;20050;-61
2022/06/24 02:02:33;;;;;;;1999.90;999.90;;;18.90;99.90;;;;;;5113576;28;20035;-61
2022/06/24 02:04:59;;;;;;;1999.90;999.90;;;18.80;99.90;;;;;;5115034;28;20387;-61
2022/06/24 02:07:25;;;;;;;1999.90;999.90;;;18.80;99.90;;;;;;5096395;28;20077;-61
2022/06/24 02:15:19;;;;;;;1999.90;999.90;;;18.60;99.90;;;;;;5095942;28;20485;-61
2022/06/24 02:17:45;;;;;;;1999.90;999.90;;;18.50;99.90;;;;;;5113679;28;20075;-61
2022/06/24 02:20:11;;;;;;;1999.90;999.90;;;18.50;99.90;;;;;;5114822;28;20047;-61
2022/06/24 02:22:37;;;;;;;1999.90;999.90;;;18.50;99.90;;;;;;5113851;28;20048;-61
2022/06/24 02:25:03;;;;;;;1999.90;999.90;;;18.40;99.90;;;;;;5113210;28;20126;-61
2022/06/24 02:27:28;;;;;;;1999.90;999.90;;;18.40;99.90;;;;;;5095766;28;20051;-61
2022/06/24 02:29:54;;;;;;;1999.90;999.90;;;18.30;99.90;;;;;;5095167;28;20100;-61
2022/06/24 02:32:20;;;;;;;1999.90;999.90;;;18.30;99.90;;;;;;5112712;28;20048;-61
2022/06/24 02:34:45;;;;;;;1999.90;999.90;;;18.30;99.90;;;;;;5095334;28;20058;-61
2022/06/24 02:37:11;;;;;;;1999.90;999.90;;;18.30;99.90;;;;;;5113547;28;20051;-61
2022/06/24 02:39:37;;;;;;;1999.90;999.90;;;18.50;99.90;;;;;;5109371;28;20051;-61
2022/06/24 02:42:03;;;;;;;1999.90;999.90;;;18.40;99.90;;;;;;5113714;28;20060;-61
2022/06/24 02:44:29;;;;;;;1999.90;999.90;;;18.40;99.90;;;;;;5113396;28;20126;-61
2022/06/24 02:46:55;;;;;;;1999.90;999.90;;;18.40;99.90;;;;;;5078412;28;20139;-61
2022/06/24 02:49:21;;;;;;;1999.90;999.90;;;18.40;99.90;;;;;;5114026;28;20044;-61
2022/06/24 02:51:46;;;;;;;1999.90;999.90;;;18.40;99.90;;;;;;5112944;28;20044;-61
2022/06/24 02:54:12;;;;;;;1999.90;999.90;;;18.40;99.90;;;;;;5113764;28;20040;-61
2022/06/24 02:56:38;;;;;;;1999.90;999.90;;;18.50;99.90;;;;;;5113569;28;20378;-61
2022/06/24 02:59:03;;;;;;;1999.90;999.90;;;18.50;99.90;;;;;;5113274;28;20051;-61
2022/06/24 03:01:29;;;;;;;1999.90;999.90;;;18.50;99.90;;;;;;5113651;28;20042;-61
2022/06/24 03:03:55;;;;;;;1999.90;999.90;;;18.50;99.90;;;;;;5113799;28;20054;-61
2022/06/24 03:06:21;;;;;;;1999.90;999.90;;;18.50;99.90;;;;;;5112930;28;20088;-61
2022/06/24 03:08:47;;;;;;;1999.90;999.90;;;18.60;99.90;;;;;;5113183;28;20397;-61
2022/06/24 03:11:13;;;;;;;1999.90;999.90;;;18.60;99.90;;;;;;5113293;28;20046;-61
2022/06/24 03:13:39;;;;;;;1999.90;999.90;;;18.60;99.90;;;;;;5112905;28;20140;-61
2022/06/24 03:16:05;;;;;;;1999.90;999.90;;;18.60;99.90;;;;;;5113760;28;20043;-61
2022/06/24 03:18:31;;;;;;;1999.90;999.90;;;18.60;99.90;;;;;;5094472;28;20149;-61
2022/06/24 03:20:57;;;;;;;1999.90;999.90;;;18.50;99.90;;;;;;5112833;28;20160;-60
2022/06/24 03:23:23;;;;;;;1999.90;999.90;;;18.50;99.90;;;;;;5113360;28;20035;-61
2022/06/24 03:25:48;;;;;;;1999.90;999.90;;;18.60;99.90;;;;;;5112834;28;20623;-60
2022/06/24 03:28:14;;;;;;;1999.90;999.90;;;18.60;99.90;;;;;;5112552;28;20055;-60
2022/06/24 03:30:40;;;;;;;1999.90;999.90;;;18.60;99.90;;;;;;5094809;28;20404;-61
2022/06/24 03:33:06;;;;;;;1999.90;999.90;;;18.70;99.90;;;;;;5112426;28;20095;-60
2022/06/24 03:35:32;;;;;;;1999.90;999.90;;;18.70;99.90;;;;;;5113103;28;20127;-60
2022/06/24 03:37:58;;;;;;;1999.90;999.90;;;18.60;99.90;;;;;;5112953;28;20054;-60
2022/06/24 03:40:24;;;;;;;1999.90;999.90;;;18.70;99.90;;;;;;5107448;28;20035;-60
2022/06/24 03:42:50;;;;;;;1999.90;999.90;;;18.70;99.90;;;;;;5113111;28;20056;-60
2022/06/24 03:45:16;;;;;;;1999.90;999.90;;;18.80;99.90;;;;;;5113100;28;20040;-60
2022/06/24 03:47:41;;;;;;;1999.90;999.90;;;18.90;99.90;;;;;;5112132;28;20048;-60
2022/06/24 03:50:07;;;;;;;1999.90;999.90;;;19.00;99.90;;;;;;5094643;28;20062;-60
2022/06/24 03:52:33;;;;;;;1999.90;999.90;;;19.10;99.90;;;;;;5095160;28;20052;-60
2022/06/24 03:54:59;;;;;;;1999.90;999.90;;;19.20;99.90;;;;;;5093118;28;20134;-60
2022/06/24 03:57:25;;;;;;;1999.90;999.90;;;19.30;99.90;;;;;;5112923;28;20047;-60
2022/06/24 03:59:50;;;;;;;1999.90;999.90;;;19.40;99.90;;;;;;5113373;28;20048;-61
2022/06/24 04:02:18;;;;;;;1999.90;999.90;;;19.40;99.90;;;;;;5111796;28;20035;-60
2022/06/24 04:04:43;;;;;;;1999.90;999.90;;;19.40;99.90;;;;;;5113021;28;20130;-60
2022/06/24 04:07:09;;;;;;;1999.90;999.90;;;19.40;99.90;;;;;;5113181;28;20134;-60
2022/06/24 04:09:35;;;;;;;1999.90;999.90;;;19.50;99.90;;;;;;5111553;28;20528;-61
2022/06/24 04:12:01;;;;;;;1999.90;999.90;;;19.40;99.90;;;;;;5112473;28;20082;-61
2022/06/24 04:17:11;;;;;;;1999.90;999.90;;;19.40;99.90;;;;;;5112084;28;20055;-60
2022/06/24 04:19:37;;;;;;;1999.90;999.90;;;19.40;99.90;;;;;;5112713;28;20069;-60
2022/06/24 04:22:04;;;;;;;1999.90;999.90;;;19.40;99.90;;;;;;5094561;28;20055;-60
2022/06/24 04:24:30;;;;;;;1999.90;999.90;;;19.30;99.90;;;;;;5111451;28;20546;-60
2022/06/24 04:26:55;;;;;;;1999.90;999.90;;;19.30;99.90;;;;;;5112645;28;20051;-60
2022/06/24 04:29:21;;;;;;;1999.90;999.90;;;19.30;99.90;;;;;;5111342;28;20050;-60
2022/06/24 04:31:47;;;;;;;1999.90;999.90;;;19.30;99.90;;;;;;5112404;28;20047;-60
2022/06/24 04:34:13;;;;;;;1999.90;999.90;;;19.40;99.90;;;;;;5112968;28;20035;-60
2022/06/24 04:36:38;;;;;;;1999.90;999.90;;;19.40;99.90;;;;;;5111663;28;20059;-60
2022/06/24 04:39:04;;;;;;;1999.90;999.90;;;19.40;99.90;;;;;;5112116;28;20046;-60
2022/06/24 04:41:30;;;;;;;1999.90;999.90;;;19.50;99.90;;;;;;5112427;28;20170;-61
2022/06/24 04:43:56;;;;;;;1999.90;999.90;;;19.60;99.90;;;;;;5111927;28;20051;-60
2022/06/24 04:46:21;;;;;;;1999.90;999.90;;;19.70;99.90;;;;;;5111919;28;20048;-60
2022/06/24 04:48:47;;;;;;;1999.90;999.90;;;19.70;99.90;;;;;;5112923;28;20050;-61
2022/06/24 04:51:13;;;;;;;1999.90;999.90;;;19.70;99.90;;;;;;5115250;28;20058;-60
2022/06/24 04:53:39;;;;;;;1999.90;999.90;;;19.80;99.90;;;;;;5116085;28;20051;-61
2022/06/24 04:56:04;;;;;;;1999.90;999.90;;;19.80;99.90;;;;;;5115973;28;20046;-61
2022/06/24 04:58:30;;;;;;;1999.90;999.90;;;19.90;99.90;;;;;;5115514;28;20040;-60
2022/06/24 05:00:56;;;;;;;1999.90;999.90;;;19.90;99.90;;;;;;5115865;28;20055;-60
2022/06/24 05:03:22;;;;;;;1999.90;999.90;;;19.90;99.90;;;;;;5097847;28;20119;-60
2022/06/24 05:05:47;;;;;;;1999.90;999.90;;;19.90;99.90;;;;;;5114909;28;20044;-60
2022/06/24 05:08:13;;;;;;;1999.90;999.90;;;20.10;99.90;;;;;;5115650;28;20047;-61
2022/06/24 05:10:41;;;;;;;1999.90;999.90;;;20.30;99.90;;;;;;5115786;28;20082;-61
2022/06/24 05:13:08;;;;;;;1999.90;999.90;;;20.50;99.90;;;;;;5114763;28;20075;-60
2022/06/24 05:15:34;;;;;;;1999.90;999.90;;;20.60;99.90;;;;;;5115573;28;20048;-60
2022/06/24 05:18:00;;;;;;;1999.90;999.90;;;20.70;99.90;;;;;;5115798;28;20040;-60
2022/06/24 05:20:26;;;;;;;1999.90;999.90;;;20.80;99.90;;;;;;5113523;28;20077;-60
2022/06/24 05:22:52;;;;;;;1999.90;999.90;;;21.00;99.90;;;;;;5115148;28;20055;-60
2022/06/24 05:25:17;;;;;;;1999.90;999.90;;;21.10;99.90;;;;;;5077065;28;20109;-61
2022/06/24 05:27:43;;;;;;;1999.90;999.90;;;21.10;99.90;;;;;;5094371;28;20062;-60
2022/06/24 05:30:10;;;;;;;1999.90;999.90;;;21.20;99.90;;;;;;5095020;28;20051;-60
2022/06/24 05:32:36;;;;;;;1999.90;999.90;;;21.20;99.90;;;;;;5114693;28;20435;-60
2022/06/24 05:35:01;;;;;;;1999.90;999.90;;;21.20;99.90;;;;;;5115181;28;20075;-60
2022/06/24 05:37:27;;;;;;;1999.90;999.90;;;21.20;99.90;;;;;;5115244;28;20050;-60
2022/06/24 05:39:53;;;;;;;1999.90;999.90;;;21.20;99.90;;;;;;5110059;28;20055;-60
2022/06/24 05:42:18;;;;;;;1999.90;999.90;;;21.30;99.90;;;;;;5115235;28;20134;-61
2022/06/24 05:44:46;;;;;;;1999.90;999.90;;;21.30;99.90;;;;;;5115004;28;20139;-60
2022/06/24 05:47:12;;;;;;;1999.90;999.90;;;21.30;99.90;;;;;;5114657;28;20130;-60
2022/06/24 05:49:38;;;;;;;1999.90;999.90;;;21.40;99.90;;;;;;5114434;28;20093;-60
2022/06/24 05:52:04;;;;;;;1999.90;999.90;;;21.40;99.90;;;;;;5115000;28;20123;-61
2022/06/24 05:57:14;;;;;;;1999.90;999.90;;;21.50;99.90;;;;;;5114821;28;20051;-60
2022/06/24 05:59:40;;;;;;;1999.90;999.90;;;21.50;99.90;;;;;;5096330;28;20048;-60
2022/06/24 06:02:06;;;;;;;1999.90;999.90;;;21.70;99.90;;;;;;5114110;28;20086;-60
2022/06/24 06:04:33;;;;;;;1999.90;999.90;;;21.70;99.90;;;;;;5096590;28;20043;-60
2022/06/24 06:06:58;;;;;;;1999.90;999.90;;;21.70;99.90;;;;;;5114040;28;20075;-60
2022/06/24 06:09:24;;;;;;;1999.90;999.90;;;21.70;99.90;;;;;;5113504;28;20528;-60
2022/06/24 06:11:50;;;;;;;1999.90;999.90;;;21.60;99.90;;;;;;5114258;28;20044;-60
2022/06/24 06:14:16;;;;;;;1999.90;999.90;;;21.40;99.90;;;;;;5113486;28;20039;-60
2022/06/24 06:16:41;;;;;;;1999.90;999.90;;;21.20;99.90;;;;;;5113016;28;20420;-60
2022/06/24 06:19:07;;;;;;;1999.90;999.90;;;21.10;99.90;;;;;;5114162;28;20039;-60
2022/06/24 06:21:33;;;;;;;541.28;504.23;;;20.70;99.90;;;;;;5114257;28;20385;-60
2022/06/24 06:23:59;;;;;;;455.30;430.25;;;18.00;99.90;;;;;;5113463;28;20473;-60
2022/06/24 06:26:25;;;;;;;484.75;455.83;;;17.50;99.90;;;;;;5114446;28;20074;-60
2022/06/24 06:28:50;;;;;;;609.22;572.75;;;17.20;99.90;;;;;;5113394;28;20052;-59
2022/06/24 06:31:16;;;;;;;583.58;548.60;;;16.70;99.90;;;;;;5095052;28;20051;-59
2022/06/24 06:33:42;;;;;;;692.80;646.90;;;16.30;99.90;;;;;;5113008;28;20393;-59
2022/06/24 06:36:10;;;;;;;568.15;534.08;;;16.20;99.90;;;;;;5113123;28;20754;-59
2022/06/24 06:38:37;;;;;;;768.45;704.45;;;16.20;99.90;;;;;;5111426;28;20058;-60
2022/06/24 06:41:03;;;;;;;603.58;564.05;;;16.30;99.90;;;;;;5095173;28;20055;-59
2022/06/24 06:43:28;;;;;;;612.70;569.33;;;16.30;99.90;;;;;;5113146;28;20055;-60
2022/06/24 06:45:55;;;;;;;555.80;521.03;;;16.20;99.90;;;;;;5113840;28;20123;-60
2022/06/24 06:48:21;;;;;;;588.17;551.58;;;16.10;99.90;;;;;;5114101;28;20065;-60
2022/06/24 06:50:52;;;;;;;577.95;541.25;;;16.10;99.90;;;;;;5112638;28;20557;-59
2022/06/24 06:53:18;;;;;;;586.22;550.20;;;16.10;99.90;;;;;;5113696;28;20082;-59
2022/06/24 06:55:43;;;;;;;524.50;493.85;;;16.00;99.90;;;;;;5113685;28;20071;-59
2022/06/24 06:58:09;;;;;;;562.22;527.45;;;16.10;99.90;;;;;;5113313;28;20080;-59
2022/06/24 07:00:35;;;;;;;497.75;467.83;;;16.10;99.90;;;;;;5112957;28;20048;-59
2022/06/24 07:03:01;;;;;;;412.90;388.73;;;16.20;99.90;;;;;;5114006;28;20111;-59
2022/06/24 07:05:26;;;;;;;446.27;420.83;;;16.30;99.90;;;;;;5112994;28;20047;-59
2022/06/24 07:07:52;;;;;;;461.27;434.00;;;16.30;99.90;;;;;;5108627;28;20039;-59
2022/06/24 07:10:18;;;;;;;467.17;437.90;;;16.30;99.90;;;;;;5101570;28;20055;-59
2022/06/24 07:12:44;;;;;;;350.17;331.13;;;16.30;99.90;;;;;;5099783;28;20043;-59
2022/06/24 07:15:14;;;;;;;397.00;373.10;;;16.30;99.90;;;;;;5112584;28;20127;-59
2022/06/24 07:17:40;;;;;;;385.27;363.15;;;16.40;99.90;;;;;;5112932;28;20075;-59
2022/06/24 07:20:07;;;;;;;387.77;364.98;;;16.50;99.90;;;;;;5093641;28;20055;-60
2022/06/24 07:22:32;;;;;;;709.53;652.17;;;16.70;99.90;;;;;;5112736;28;20458;-59
2022/06/24 07:24:58;;;;;;;720.13;656.05;;;16.70;99.90;;;;;;5112580;28;20079;-60
2022/06/24 07:27:24;;;;;;;494.42;461.48;;;16.90;99.90;;;;;;5100119;28;20135;-60
2022/06/24 07:29:50;;;;;;;277.92;261.67;;;16.90;99.90;;;;;;5112828;28;20489;-59
2022/06/24 07:32:16;;;;;;;435.52;407.77;;;17.00;99.90;;;;;;5112285;28;20513;-59
2022/06/24 07:34:42;;;;;;;484.30;450.65;;;17.20;99.90;;;;;;5112547;28;20487;-59
2022/06/24 07:37:07;;;;;;;368.75;346.77;;;17.30;99.90;;;;;;5112164;28;20044;-60
2022/06/24 07:39:33;;;;;;;269.50;254.52;;;17.40;99.90;;;;;;5112266;28;20122;-59
2022/06/24 07:41:59;;;;;;;309.23;291.95;;;17.50;99.90;;;;;;5112873;28;20145;-59
2022/06/24 07:44:25;;;;;;;367.33;344.90;;;17.50;99.90;;;;;;5112163;28;20105;-59
2022/06/24 07:46:51;;;;;;;379.88;356.73;;;17.60;99.90;;;;;;5111800;28;20442;-59
2022/06/24 07:49:17;;;;;;;382.50;359.23;;;17.70;99.90;;;;;;5113120;28;20082;-59
2022/06/24 07:51:44;;;;;;;301.75;284.27;;;17.80;99.90;;;;;;5112154;28;20120;-59
2022/06/24 07:54:10;;;;;;;344.98;324.52;;;17.90;99.90;;;;;;5106590;28;20064;-60
2022/06/24 07:59:21;;;;;;;324.25;305.23;;;17.90;99.90;;;;;;5078313;28;20493;-59
2022/06/24 08:01:48;;;;;;;460.70;432.05;;;18.00;99.90;;;;;;5103327;28;20044;-59
2022/06/24 08:04:14;;;;;;;425.70;400.98;;;18.10;99.90;;;;;;5089483;28;20058;-59
2022/06/24 08:06:45;;;;;;;505.05;471.80;;;18.30;99.90;;;;;;5112564;28;20043;-59
2022/06/24 08:09:11;;;;;;;362.92;341.92;;;18.60;99.90;;;;;;5111777;28;20078;-59
2022/06/24 08:11:36;;;;;;;363.13;342.63;;;18.80;99.90;;;;;;5110978;28;20078;-60
2022/06/24 08:14:03;;;;;;;354.45;333.70;;;19.10;99.90;;;;;;5111840;28;20049;-59
2022/06/24 08:16:28;;;;;;;381.88;359.20;;;19.30;99.90;;;;;;5111211;28;20078;-60
2022/06/24 08:18:55;;;;;;;375.77;352.38;;;19.70;99.90;;;;;;5110154;28;20458;-59
2022/06/24 08:21:21;;;;;;;426.13;400.05;;;19.90;99.90;;;;;;5110840;28;20105;-60
2022/06/24 08:23:47;;;;;;;444.88;419.15;;;20.00;99.90;;;;;;5112428;28;20039;-60
2022/06/24 08:26:13;;;;;;;449.70;421.30;;;20.00;99.90;;;;;;5116212;28;20039;-59
2022/06/24 08:28:39;;;;;;;477.27;448.88;;;20.10;99.90;;;;;;5115072;28;20131;-60
2022/06/24 08:31:05;;;;;;;564.92;530.10;;;20.10;99.90;;;;;;5115894;28;20039;-60
2022/06/24 08:33:31;;;;;;;375.83;355.02;;;20.20;99.90;;;;;;5116390;28;20051;-60
2022/06/24 08:35:56;;;;;;;338.85;319.80;;;20.10;99.90;;;;;;5114948;28;20051;-60
2022/06/24 08:38:22;;;;;;;350.85;330.40;;;20.10;99.90;;;;;;5115575;28;20050;-60
2022/06/24 08:40:49;;;;;;;409.95;387.65;;;20.10;99.90;;;;;;5116425;28;20148;-60
2022/06/24 08:43:17;;;;;;;383.65;361.27;;;20.20;99.90;;;;;;5114580;28;20546;-60
2022/06/24 08:45:43;;;;;;;338.08;320.45;;;20.20;99.90;;;;;;5115608;28;20044;-60
2022/06/24 08:48:09;;;;;;;317.60;301.45;;;20.30;99.90;;;;;;5112841;28;20393;-60
2022/06/24 08:50:36;;;;;;;342.92;321.63;;;20.30;99.90;;;;;;5114718;28;20051;-60
2022/06/24 08:53:07;;;;;;;413.92;390.45;;;20.20;99.90;;;;;;5115886;28;20058;-60
2022/06/24 08:55:38;;;;;;;374.52;353.60;;;20.20;99.90;;;;;;5115053;28;20073;-60
2022/06/24 08:58:09;;;;;;;450.80;424.08;;;20.30;99.90;;;;;;5115004;28;20040;-60
2022/06/24 09:00:36;;;;;;;317.30;301.00;;;20.50;99.90;;;;;;5115402;28;20039;-60
2022/06/24 09:03:04;;;;;;;625.53;587.90;;;20.50;99.90;;;;;;5114917;28;20586;-60
2022/06/24 09:05:30;;;;;;;463.80;437.10;;;20.50;99.90;;;;;;5114294;28;20074;-60
2022/06/24 09:08:04;;;;;;;406.90;383.65;;;20.50;99.90;;;;;;5115874;28;20482;-60
2022/06/24 09:10:29;;;;;;;314.42;297.17;;;20.50;99.90;;;;;;5115166;28;20059;-60
2022/06/24 09:12:55;;;;;;;393.13;372.02;;;20.50;99.90;;;;;;5114125;28;20043;-60
2022/06/24 09:15:22;;;;;;;309.27;293.50;;;20.50;99.90;;;;;;5113057;28;20028;-59
2022/06/24 09:17:49;;;;;;;388.83;368.80;;;20.30;99.90;;;;;;5096359;28;20056;-60
2022/06/24 09:20:21;;;;;;;437.67;412.23;;;20.20;99.90;;;;;;5114792;28;20055;-60
2022/06/24 09:22:47;;;;;;;;;;;20.10;99.90;;;;;;5115611;28;20043;-60
2022/06/24 09:25:13;;;;;;;231.85;220.77;;;20.00;99.90;;;;;;5114755;28;19924;-60
2022/06/24 09:27:44;;;;;;;306.23;290.70;;;19.90;99.90;;;;;;5114723;28;20043;-60
2022/06/24 09:30:14;;;;;;;304.52;289.80;;;19.90;99.90;;;;;;5113577;28;20048;-60
2022/06/24 09:32:54;;;;;;;444.85;417.10;;;19.80;99.90;;;;;;5113570;28;20044;-60
2022/06/24 09:35:22;;;;;;;354.65;332.70;;;19.80;99.90;;;;;;5114732;28;20177;-60
2022/06/24 09:37:51;;;;;;;426.85;402.25;;;19.80;99.90;;;;;;5113290;28;20035;-60
2022/06/24 09:40:26;;;;;;;374.70;352.38;;;19.80;99.90;;;;;;5095046;28;20486;-60
2022/06/24 09:43:04;;;;;;;397.95;373.13;;;19.80;99.90;;;;;;5111669;28;20135;-59
2022/06/24 09:45:43;;;;;;;502.10;470.95;;;19.80;99.90;;;;;;5115328;28;20058;-60
2022/06/24 09:48:11;;;;;;;400.42;377.20;;;19.70;99.90;;;;;;5114745;28;20123;-60
2022/06/24 09:50:38;;;;;;;313.33;295.63;;;19.70;99.90;;;;;;5113792;28;20059;-60
2022/06/24 09:53:04;;;;;;;390.38;368.58;;;19.70;99.90;;;;;;5114408;28;20043;-60
2022/06/24 09:55:30;;;;;;;353.20;332.63;;;19.80;99.90;;;;;;5114371;28;20058;-60
2022/06/24 09:57:59;;;;;;;387.15;364.30;;;19.90;99.90;;;;;;5110200;28;20044;-60
2022/06/24 10:00:40;;;;;;;403.23;381.13;;;20.10;99.90;;;;;;5093750;28;20048;-60
2022/06/24 10:03:15;;;;;;;382.52;359.92;;;20.10;99.90;;;;;;5096049;28;20051;-60
2022/06/24 10:05:44;;;;;;;410.40;387.08;;;20.20;99.90;;;;;;5095373;28;20409;-60
2022/06/24 10:08:13;;;;;;;316.25;299.80;;;20.30;99.90;;;;;;5113422;28;20527;-60
2022/06/24 10:10:44;;;;;;;439.48;414.08;;;20.30;99.90;;;;;;5114459;28;20439;-60
2022/06/24 10:13:19;;;;;;;502.27;471.27;;;20.30;99.90;;;;;;5113958;28;20105;-60
2022/06/24 10:15:45;;;;;;;405.13;381.90;;;20.30;99.90;;;;;;5094981;28;20047;-60
2022/06/24 10:18:12;;;;;;;361.80;342.75;;;20.40;99.90;;;;;;5114373;28;20050;-60
2022/06/24 10:20:43;;;;;;;423.95;400.52;;;20.40;99.90;;;;;;5114561;28;20097;-60
2022/06/24 10:23:37;;;;;;;245.45;232.52;;;20.40;99.90;;;;;;5113089;28;20044;-60
2022/06/24 10:26:10;;;;;;;275.35;261.02;;;20.60;99.90;;;;;;5104465;28;20058;-60
2022/06/24 10:29:00;;;;;;;246.25;234.60;;;20.90;99.90;;;;;;5108209;28;20040;-60
2022/06/24 10:31:42;;;;;;;341.23;324.60;;;21.30;99.90;;;;;;5113968;28;20470;-60
2022/06/24 10:34:10;;;;;;;338.88;322.85;;;21.80;99.90;;;;;;5113969;28;20093;-60
2022/06/24 10:36:36;;;;;;;434.45;410.27;;;21.60;99.90;;;;;;5113634;28;20428;-60
2022/06/24 10:39:14;;;;;;;486.17;458.65;;;21.50;99.90;;;;;;5114275;28;20073;-60
2022/06/24 10:41:42;;;;;;;234.38;223.70;;;21.30;99.90;;;;;;5113195;28;20410;-60
2022/06/24 10:44:28;;;;;;;337.35;321.48;;;21.20;99.90;;;;;;5113214;28;20547;-60
2022/06/24 10:47:04;;;;;;;383.45;364.50;;;21.00;99.90;;;;;;5113207;28;20076;-60
2022/06/24 10:49:50;;;;;;;418.40;396.42;;;20.90;99.90;;;;;;5112553;28;20594;-60
2022/06/24 10:52:45;;;;;;;502.80;473.20;;;20.70;99.90;;;;;;5114098;28;20127;-60
2022/06/24 10:55:15;;;;;;;519.55;489.55;;;20.60;99.90;;;;;;5113739;28;20051;-60
2022/06/24 10:57:43;;;;;;;541.80;509.83;;;20.40;99.90;;;;;;5112801;28;20185;-60
2022/06/24 11:00:12;;;;;;;237.07;226.43;;;20.30;99.90;;;;;;5113714;28;20669;-60
2022/06/24 11:02:38;;;;;;;404.40;382.60;;;20.20;99.90;;;;;;5113347;28;20032;-60
2022/06/24 11:05:08;;;;;;;481.52;452.98;;;20.00;99.90;;;;;;5113106;28;20505;-59
2022/06/24 11:07:33;;;;;;;485.02;453.25;;;19.80;99.90;;;;;;5113188;28;20100;-59
2022/06/24 11:09:59;;;;;;;322.92;301.17;;;19.10;99.90;;;;;;5113451;28;20039;-60
2022/06/24 11:12:28;;;;;;;353.77;330.25;;;18.80;99.90;;;;;;5112753;28;20043;-60
2022/06/24 11:14:54;;;;;;;422.95;390.38;;;18.60;99.90;;;;;;5113744;28;20375;-60
2022/06/24 11:17:24;;;;;;;357.35;332.02;;;18.70;99.90;;;;;;5112444;28;20097;-60
2022/06/24 11:19:51;;;;;;;428.45;391.98;;;18.70;99.90;;;;;;5109674;28;20044;-60
2022/06/24 11:22:17;;;;;;;381.35;357.30;;;18.70;99.90;;;;;;5085711;28;20402;-60
2022/06/24 11:24:47;;;;;;;331.17;312.77;;;18.70;99.90;;;;;;5107256;28;20031;-60
2022/06/24 11:27:13;;;;;;;341.77;322.42;;;18.40;99.90;;;;;;5112037;28;20043;-60
2022/06/24 11:29:51;;;;;;;301.17;282.08;;;18.00;99.90;;;;;;5113121;28;20048;-60
2022/06/24 11:32:17;;;;;;;299.40;281.58;;;17.90;99.90;;;;;;5112409;28;20143;-60
2022/06/24 11:34:45;;;;;;;377.90;353.83;;;17.90;99.90;;;;;;5112245;28;20539;-60
2022/06/24 11:37:11;;;;;;;380.77;355.23;;;18.00;99.90;;;;;;5113245;28;20043;-59
2022/06/24 11:39:37;;;;;;;378.50;354.70;;;18.20;99.90;;;;;;5111539;28;20032;-60
2022/06/24 11:42:03;;;;;;;344.30;323.75;;;18.20;99.90;;;;;;5094348;28;20512;-60
2022/06/24 11:44:35;;;;;;;306.85;289.98;;;18.10;99.90;;;;;;5112701;28;20431;-60
2022/06/24 11:47:02;;;;;;;389.75;367.00;;;18.00;99.90;;;;;;5111938;28;20100;-59
2022/06/24 11:49:31;;;;;;;350.90;330.08;;;17.90;99.90;;;;;;5112882;28;20047;-59
2022/06/24 11:51:57;;;;;;;329.88;311.45;;;17.80;99.90;;;;;;5093957;28;20450;-59
2022/06/24 11:54:30;;;;;;;300.17;284.30;;;17.70;99.90;;;;;;5093555;28;20128;-59
2022/06/24 11:56:57;;;;;;;297.27;281.35;;;17.50;99.90;;;;;;5112970;28;20044;-59
2022/06/24 11:59:26;;;;;;;310.50;292.40;;;17.50;99.90;;;;;;5115243;28;20107;-60
2022/06/24 12:01:53;;;;;;;410.88;385.45;;;17.50;99.90;;;;;;5116481;28;20138;-60
2022/06/24 12:04:23;;;;;;;307.27;288.80;;;17.50;99.90;;;;;;5117375;28;20055;-59
2022/06/24 12:06:50;;;;;;;358.75;338.80;;;17.60;99.90;;;;;;5116367;28;20432;-60
2022/06/24 12:09:16;;;;;;;401.88;376.70;;;17.40;99.90;;;;;;5116210;28;20047;-59
2022/06/24 12:11:43;;;;;;;454.25;427.55;;;17.20;99.90;;;;;;5116465;28;20055;-60
2022/06/24 12:14:11;;;;;;;488.55;458.73;;;17.10;99.90;;;;;;5115928;28;20083;-59
2022/06/24 12:16:57;;;;;;;317.75;300.30;;;17.10;99.90;;;;;;5098468;28;20441;-59
2022/06/24 12:19:23;;;;;;;389.50;366.75;;;16.90;99.90;;;;;;5116171;28;20047;-60